sensor_id;sensor_type;location;lat;lon;timestamp;P1;durP1;ratioP1;P2;durP2;ratioP2
11498;SDS011;5806;48.748;9.278;2023-01-13T00:00:18;0.10;;;0.10;;
11498;SDS011;5806;48.748;9.278;2023-01-13T00:02:45;1.17;;;0.10;;
11498;SDS011;5806;48.748;9.278;2023-01-13T00:05:13;0.43;;;0.20;;
11498;SDS011;5806;48.748;9.278;2023-01-13T00:07:40;0.67;;;0.10;;
11498;SDS011;5806;48.748;9.278;2023-01-13T00:10:08;0.07;;;0.00;;
11498;SDS011;5806;48.748;9.278;2023-01-13T00:12:40;0.33;;;0.20;;
11498;SDS011;5806;48.748;9.278;2023-01-13T00:15:08;0.70;;;0.13;;
11498;SDS011;5806;48.748;9.278;2023-01-13T00:17:36;0.10;;;0.10;;
11498;SDS011;5806;48.748;9.278;2023-01-13T00:20:04;0.63;;;0.10;;
11498;SDS011;5806;48.748;9.278;2023-01-13T00:22:32;0.20;;;0.20;;
11498;SDS011;5806;48.748;9.278;2023-01-13T00:25:01;0.40;;;0.40;;
11498;SDS011;5806;48.748;9.278;2023-01-13T00:27:29;1.10;;;0.33;;
11498;SDS011;5806;48.748;9.278;2023-01-13T00:29:57;1.03;;;0.20;;
11498;SDS011;5806;48.748;9.278;2023-01-13T00:32:25;0.17;;;0.10;;
11498;SDS011;5806;48.748;9.278;2023-01-13T00:34:52;0.10;;;0.00;;
11498;SDS011;5806;48.748;9.278;2023-01-13T00:37:20;0.40;;;0.20;;
11498;SDS011;5806;48.748;9.278;2023-01-13T00:39:49;1.50;;;0.20;;
11498;SDS011;5806;48.748;9.278;2023-01-13T00:42:17;0.60;;;0.30;;
11498;SDS011;5806;48.748;9.278;2023-01-13T00:45:03;1.07;;;0.30;;
11498;SDS011;5806;48.748;9.278;2023-01-13T00:47:31;1.03;;;0.20;;
11498;SDS011;5806;48.748;9.278;2023-01-13T00:49:58;0.17;;;0.10;;
11498;SDS011;5806;48.748;9.278;2023-01-13T00:52:26;1.30;;;0.10;;
11498;SDS011;5806;48.748;9.278;2023-01-13T00:54:53;0.70;;;0.20;;
11498;SDS011;5806;48.748;9.278;2023-01-13T00:57:20;0.37;;;0.20;;
11498;SDS011;5806;48.748;9.278;2023-01-13T00:59:48;0.27;;;0.27;;
11498;SDS011;5806;48.748;9.278;2023-01-13T01:02:15;0.77;;;0.20;;
11498;SDS011;5806;48.748;9.278;2023-01-13T01:04:43;0.30;;;0.20;;
11498;SDS011;5806;48.748;9.278;2023-01-13T01:07:10;1.23;;;0.30;;
11498;SDS011;5806;48.748;9.278;2023-01-13T01:09:38;0.80;;;0.40;;
11498;SDS011;5806;48.748;9.278;2023-01-13T01:12:05;1.17;;;0.23;;
11498;SDS011;5806;48.748;9.278;2023-01-13T01:14:33;0.20;;;0.20;;
11498;SDS011;5806;48.748;9.278;2023-01-13T01:17:00;1.43;;;0.27;;
11498;SDS011;5806;48.748;9.278;2023-01-13T01:19:28;0.87;;;0.40;;
11498;SDS011;5806;48.748;9.278;2023-01-13T01:21:55;0.50;;;0.30;;
11498;SDS011;5806;48.748;9.278;2023-01-13T01:24:23;0.97;;;0.37;;
11498;SDS011;5806;48.748;9.278;2023-01-13T01:26:50;1.43;;;0.30;;
11498;SDS011;5806;48.748;9.278;2023-01-13T01:29:18;0.97;;;0.60;;
11498;SDS011;5806;48.748;9.278;2023-01-13T01:31:45;1.37;;;0.43;;
11498;SDS011;5806;48.748;9.278;2023-01-13T01:34:12;1.80;;;0.33;;
11498;SDS011;5806;48.748;9.278;2023-01-13T01:36:40;1.47;;;0.40;;
11498;SDS011;5806;48.748;9.278;2023-01-13T01:39:08;0.53;;;0.30;;
11498;SDS011;5806;48.748;9.278;2023-01-13T01:41:36;2.80;;;0.50;;
11498;SDS011;5806;48.748;9.278;2023-01-13T01:44:05;2.07;;;0.70;;
11498;SDS011;5806;48.748;9.278;2023-01-13T01:46:50;3.07;;;0.40;;
11498;SDS011;5806;48.748;9.278;2023-01-13T01:52:09;9.07;;;0.63;;
11498;SDS011;5806;48.748;9.278;2023-01-13T01:57:19;2.60;;;0.70;;
11498;SDS011;5806;48.748;9.278;2023-01-13T01:59:48;2.07;;;0.30;;
11498;SDS011;5806;48.748;9.278;2023-01-13T02:02:16;1.20;;;0.40;;
11498;SDS011;5806;48.748;9.278;2023-01-13T02:04:45;2.70;;;0.60;;
11498;SDS011;5806;48.748;9.278;2023-01-13T02:07:21;2.80;;;0.50;;
11498;SDS011;5806;48.748;9.278;2023-01-13T02:09:45;1.03;;;0.40;;
11498;SDS011;5806;48.748;9.278;2023-01-13T02:12:14;1.70;;;0.57;;
11498;SDS011;5806;48.748;9.278;2023-01-13T02:15:03;1.97;;;0.50;;
11498;SDS011;5806;48.748;9.278;2023-01-13T02:20:07;2.83;;;0.93;;
11498;SDS011;5806;48.748;9.278;2023-01-13T02:31:02;0.77;;;0.40;;
11498;SDS011;5806;48.748;9.278;2023-01-13T02:36:37;2.37;;;0.50;;
11498;SDS011;5806;48.748;9.278;2023-01-13T02:39:18;0.43;;;0.30;;
11498;SDS011;5806;48.748;9.278;2023-01-13T02:42:11;1.70;;;0.40;;
11498;SDS011;5806;48.748;9.278;2023-01-13T02:45:08;1.20;;;0.40;;
11498;SDS011;5806;48.748;9.278;2023-01-13T02:47:31;1.27;;;0.40;;
11498;SDS011;5806;48.748;9.278;2023-01-13T02:50:02;2.20;;;0.60;;
11498;SDS011;5806;48.748;9.278;2023-01-13T02:52:42;3.50;;;0.50;;
11498;SDS011;5806;48.748;9.278;2023-01-13T02:55:15;1.20;;;0.50;;
11498;SDS011;5806;48.748;9.278;2023-01-13T02:57:44;4.43;;;0.70;;
11498;SDS011;5806;48.748;9.278;2023-01-13T03:00:15;2.53;;;0.80;;
11498;SDS011;5806;48.748;9.278;2023-01-13T03:02:44;1.23;;;0.57;;
11498;SDS011;5806;48.748;9.278;2023-01-13T03:05:14;2.47;;;0.53;;
11498;SDS011;5806;48.748;9.278;2023-01-13T03:13:15;3.43;;;0.50;;
11498;SDS011;5806;48.748;9.278;2023-01-13T03:16:09;4.33;;;0.70;;
11498;SDS011;5806;48.748;9.278;2023-01-13T03:24:12;2.73;;;0.77;;
11498;SDS011;5806;48.748;9.278;2023-01-13T03:26:38;3.37;;;0.90;;
11498;SDS011;5806;48.748;9.278;2023-01-13T03:29:20;4.70;;;1.00;;
11498;SDS011;5806;48.748;9.278;2023-01-13T03:31:54;3.83;;;0.80;;
11498;SDS011;5806;48.748;9.278;2023-01-13T03:34:24;3.03;;;0.70;;
11498;SDS011;5806;48.748;9.278;2023-01-13T03:36:53;6.33;;;1.10;;
11498;SDS011;5806;48.748;9.278;2023-01-13T03:39:28;4.17;;;1.00;;
11498;SDS011;5806;48.748;9.278;2023-01-13T03:42:00;6.17;;;1.10;;
11498;SDS011;5806;48.748;9.278;2023-01-13T03:44:32;5.53;;;1.00;;
11498;SDS011;5806;48.748;9.278;2023-01-13T03:47:11;3.93;;;1.13;;
11498;SDS011;5806;48.748;9.278;2023-01-13T03:52:46;5.00;;;1.13;;
11498;SDS011;5806;48.748;9.278;2023-01-13T03:55:11;3.60;;;1.00;;
11498;SDS011;5806;48.748;9.278;2023-01-13T04:00:33;4.43;;;1.20;;
11498;SDS011;5806;48.748;9.278;2023-01-13T04:03:18;6.53;;;1.17;;
11498;SDS011;5806;48.748;9.278;2023-01-13T04:05:42;4.70;;;1.00;;
11498;SDS011;5806;48.748;9.278;2023-01-13T04:10:49;2.70;;;1.00;;
11498;SDS011;5806;48.748;9.278;2023-01-13T04:13:16;5.30;;;1.30;;
11498;SDS011;5806;48.748;9.278;2023-01-13T04:15:47;7.60;;;1.20;;
11498;SDS011;5806;48.748;9.278;2023-01-13T04:18:16;6.70;;;1.20;;
11498;SDS011;5806;48.748;9.278;2023-01-13T04:20:50;4.40;;;0.87;;
11498;SDS011;5806;48.748;9.278;2023-01-13T04:23:19;6.43;;;0.93;;
11498;SDS011;5806;48.748;9.278;2023-01-13T04:25:48;3.17;;;1.00;;
11498;SDS011;5806;48.748;9.278;2023-01-13T04:28:16;7.10;;;1.20;;
11498;SDS011;5806;48.748;9.278;2023-01-13T04:30:44;3.63;;;0.90;;
11498;SDS011;5806;48.748;9.278;2023-01-13T04:33:12;5.20;;;0.87;;
11498;SDS011;5806;48.748;9.278;2023-01-13T04:35:41;5.03;;;0.90;;
11498;SDS011;5806;48.748;9.278;2023-01-13T04:38:16;5.77;;;1.10;;
11498;SDS011;5806;48.748;9.278;2023-01-13T04:40:41;6.30;;;1.00;;
11498;SDS011;5806;48.748;9.278;2023-01-13T04:43:08;7.67;;;1.13;;
11498;SDS011;5806;48.748;9.278;2023-01-13T04:45:36;8.03;;;1.57;;
11498;SDS011;5806;48.748;9.278;2023-01-13T04:48:03;4.53;;;1.03;;
11498;SDS011;5806;48.748;9.278;2023-01-13T04:50:31;3.30;;;1.17;;
11498;SDS011;5806;48.748;9.278;2023-01-13T04:53:00;6.17;;;1.97;;
11498;SDS011;5806;48.748;9.278;2023-01-13T04:55:28;6.50;;;1.03;;
11498;SDS011;5806;48.748;9.278;2023-01-13T04:58:03;6.00;;;1.20;;
11498;SDS011;5806;48.748;9.278;2023-01-13T05:00:32;6.00;;;1.20;;
11498;SDS011;5806;48.748;9.278;2023-01-13T05:03:00;4.77;;;1.57;;
11498;SDS011;5806;48.748;9.278;2023-01-13T05:05:27;7.93;;;1.80;;
11498;SDS011;5806;48.748;9.278;2023-01-13T05:07:56;3.37;;;1.00;;
11498;SDS011;5806;48.748;9.278;2023-01-13T05:10:24;5.93;;;1.23;;
11498;SDS011;5806;48.748;9.278;2023-01-13T05:12:52;6.80;;;1.77;;
11498;SDS011;5806;48.748;9.278;2023-01-13T05:15:38;4.83;;;1.50;;
11498;SDS011;5806;48.748;9.278;2023-01-13T05:18:25;5.73;;;1.20;;
11498;SDS011;5806;48.748;9.278;2023-01-13T05:20:53;5.07;;;1.60;;
11498;SDS011;5806;48.748;9.278;2023-01-13T05:23:21;4.73;;;1.40;;
11498;SDS011;5806;48.748;9.278;2023-01-13T05:26:06;7.23;;;1.37;;
11498;SDS011;5806;48.748;9.278;2023-01-13T05:28:33;5.00;;;1.70;;
11498;SDS011;5806;48.748;9.278;2023-01-13T05:31:01;7.00;;;1.17;;
11498;SDS011;5806;48.748;9.278;2023-01-13T05:33:28;6.63;;;1.50;;
11498;SDS011;5806;48.748;9.278;2023-01-13T05:36:00;7.83;;;1.73;;
11498;SDS011;5806;48.748;9.278;2023-01-13T05:38:26;6.70;;;1.33;;
11498;SDS011;5806;48.748;9.278;2023-01-13T05:40:54;7.13;;;1.90;;
11498;SDS011;5806;48.748;9.278;2023-01-13T05:43:40;9.87;;;1.97;;
11498;SDS011;5806;48.748;9.278;2023-01-13T05:46:08;11.53;;;1.80;;
11498;SDS011;5806;48.748;9.278;2023-01-13T05:48:37;10.37;;;2.00;;
11498;SDS011;5806;48.748;9.278;2023-01-13T05:51:09;8.33;;;1.83;;
11498;SDS011;5806;48.748;9.278;2023-01-13T05:53:38;6.73;;;1.93;;
11498;SDS011;5806;48.748;9.278;2023-01-13T05:56:06;11.13;;;1.90;;
11498;SDS011;5806;48.748;9.278;2023-01-13T05:58:34;12.03;;;2.00;;
11498;SDS011;5806;48.748;9.278;2023-01-13T06:01:03;8.20;;;1.90;;
11498;SDS011;5806;48.748;9.278;2023-01-13T06:03:32;10.63;;;1.80;;
11498;SDS011;5806;48.748;9.278;2023-01-13T06:06:00;7.37;;;1.77;;
11498;SDS011;5806;48.748;9.278;2023-01-13T06:08:28;9.00;;;1.83;;
11498;SDS011;5806;48.748;9.278;2023-01-13T06:10:56;9.17;;;2.00;;
11498;SDS011;5806;48.748;9.278;2023-01-13T06:13:24;8.77;;;2.40;;
11498;SDS011;5806;48.748;9.278;2023-01-13T06:15:55;8.73;;;1.83;;
11498;SDS011;5806;48.748;9.278;2023-01-13T06:18:23;8.70;;;1.97;;
11498;SDS011;5806;48.748;9.278;2023-01-13T06:20:51;7.80;;;1.67;;
11498;SDS011;5806;48.748;9.278;2023-01-13T06:23:19;10.07;;;1.87;;
11498;SDS011;5806;48.748;9.278;2023-01-13T06:28:44;8.50;;;1.93;;
11498;SDS011;5806;48.748;9.278;2023-01-13T06:31:11;4.57;;;1.20;;
11498;SDS011;5806;48.748;9.278;2023-01-13T06:33:40;4.20;;;1.63;;
11498;SDS011;5806;48.748;9.278;2023-01-13T06:36:11;8.37;;;1.77;;
11498;SDS011;5806;48.748;9.278;2023-01-13T06:38:41;7.43;;;1.77;;
11498;SDS011;5806;48.748;9.278;2023-01-13T06:41:10;10.17;;;1.93;;
11498;SDS011;5806;48.748;9.278;2023-01-13T06:43:38;6.70;;;1.50;;
11498;SDS011;5806;48.748;9.278;2023-01-13T06:46:06;7.23;;;1.53;;
11498;SDS011;5806;48.748;9.278;2023-01-13T06:48:33;7.53;;;1.87;;
11498;SDS011;5806;48.748;9.278;2023-01-13T06:51:02;4.17;;;1.27;;
11498;SDS011;5806;48.748;9.278;2023-01-13T06:53:30;6.20;;;1.17;;
11498;SDS011;5806;48.748;9.278;2023-01-13T06:55:58;5.73;;;1.40;;
11498;SDS011;5806;48.748;9.278;2023-01-13T06:58:25;5.77;;;1.00;;
11498;SDS011;5806;48.748;9.278;2023-01-13T07:00:52;5.80;;;1.33;;
11498;SDS011;5806;48.748;9.278;2023-01-13T07:03:20;5.13;;;1.20;;
11498;SDS011;5806;48.748;9.278;2023-01-13T07:05:51;3.93;;;1.07;;
11498;SDS011;5806;48.748;9.278;2023-01-13T07:08:21;7.37;;;1.53;;
11498;SDS011;5806;48.748;9.278;2023-01-13T07:10:49;6.47;;;1.43;;
11498;SDS011;5806;48.748;9.278;2023-01-13T07:13:17;7.63;;;1.47;;
11498;SDS011;5806;48.748;9.278;2023-01-13T07:16:04;6.93;;;1.33;;
11498;SDS011;5806;48.748;9.278;2023-01-13T07:18:33;9.30;;;1.53;;
11498;SDS011;5806;48.748;9.278;2023-01-13T07:21:02;8.93;;;1.60;;
11498;SDS011;5806;48.748;9.278;2023-01-13T07:23:39;6.23;;;1.17;;
11498;SDS011;5806;48.748;9.278;2023-01-13T07:26:04;4.87;;;1.20;;
11498;SDS011;5806;48.748;9.278;2023-01-13T07:28:33;7.37;;;1.43;;
11498;SDS011;5806;48.748;9.278;2023-01-13T07:31:01;4.87;;;2.00;;
11498;SDS011;5806;48.748;9.278;2023-01-13T07:33:29;6.43;;;1.30;;
11498;SDS011;5806;48.748;9.278;2023-01-13T07:35:59;5.27;;;1.20;;
11498;SDS011;5806;48.748;9.278;2023-01-13T07:38:29;7.73;;;1.17;;
11498;SDS011;5806;48.748;9.278;2023-01-13T07:40:57;5.80;;;1.30;;
11498;SDS011;5806;48.748;9.278;2023-01-13T07:43:26;5.37;;;1.37;;
11498;SDS011;5806;48.748;9.278;2023-01-13T07:46:01;3.97;;;1.10;;
11498;SDS011;5806;48.748;9.278;2023-01-13T07:48:33;3.47;;;0.90;;
11498;SDS011;5806;48.748;9.278;2023-01-13T07:51:06;5.07;;;1.17;;
11498;SDS011;5806;48.748;9.278;2023-01-13T07:53:31;4.47;;;0.70;;
11498;SDS011;5806;48.748;9.278;2023-01-13T07:55:59;5.30;;;1.53;;
11498;SDS011;5806;48.748;9.278;2023-01-13T07:58:28;5.63;;;0.80;;
11498;SDS011;5806;48.748;9.278;2023-01-13T08:00:55;5.67;;;1.30;;
11498;SDS011;5806;48.748;9.278;2023-01-13T08:03:23;2.03;;;0.70;;
11498;SDS011;5806;48.748;9.278;2023-01-13T08:05:51;6.57;;;1.20;;
11498;SDS011;5806;48.748;9.278;2023-01-13T08:08:19;3.30;;;0.90;;
11498;SDS011;5806;48.748;9.278;2023-01-13T08:10:46;4.33;;;1.00;;
11498;SDS011;5806;48.748;9.278;2023-01-13T08:13:14;4.40;;;0.87;;
11498;SDS011;5806;48.748;9.278;2023-01-13T08:15:44;2.17;;;1.13;;
11498;SDS011;5806;48.748;9.278;2023-01-13T08:18:14;5.53;;;1.20;;
11498;SDS011;5806;48.748;9.278;2023-01-13T08:20:44;3.47;;;0.80;;
11498;SDS011;5806;48.748;9.278;2023-01-13T08:23:13;6.73;;;1.37;;
11498;SDS011;5806;48.748;9.278;2023-01-13T08:25:41;4.13;;;1.20;;
11498;SDS011;5806;48.748;9.278;2023-01-13T08:28:08;6.83;;;1.27;;
11498;SDS011;5806;48.748;9.278;2023-01-13T08:30:39;6.63;;;1.10;;
11498;SDS011;5806;48.748;9.278;2023-01-13T08:33:07;2.83;;;0.90;;
11498;SDS011;5806;48.748;9.278;2023-01-13T08:35:42;5.50;;;1.37;;
11498;SDS011;5806;48.748;9.278;2023-01-13T08:38:06;4.03;;;1.50;;
11498;SDS011;5806;48.748;9.278;2023-01-13T08:40:34;5.60;;;1.27;;
11498;SDS011;5806;48.748;9.278;2023-01-13T08:43:01;6.37;;;1.30;;
11498;SDS011;5806;48.748;9.278;2023-01-13T08:45:29;7.07;;;1.17;;
11498;SDS011;5806;48.748;9.278;2023-01-13T08:47:57;6.17;;;1.53;;
11498;SDS011;5806;48.748;9.278;2023-01-13T08:50:24;3.43;;;1.00;;
11498;SDS011;5806;48.748;9.278;2023-01-13T08:52:52;8.73;;;2.13;;
11498;SDS011;5806;48.748;9.278;2023-01-13T08:55:19;7.90;;;1.80;;
11498;SDS011;5806;48.748;9.278;2023-01-13T08:57:47;10.53;;;1.93;;
11498;SDS011;5806;48.748;9.278;2023-01-13T09:00:15;8.37;;;1.50;;
11498;SDS011;5806;48.748;9.278;2023-01-13T09:02:43;10.30;;;1.60;;
11498;SDS011;5806;48.748;9.278;2023-01-13T09:05:10;8.33;;;1.70;;
11498;SDS011;5806;48.748;9.278;2023-01-13T09:07:37;11.47;;;1.87;;
11498;SDS011;5806;48.748;9.278;2023-01-13T09:10:05;7.07;;;1.60;;
11498;SDS011;5806;48.748;9.278;2023-01-13T09:12:33;8.97;;;1.90;;
11498;SDS011;5806;48.748;9.278;2023-01-13T09:15:19;3.73;;;1.37;;
11498;SDS011;5806;48.748;9.278;2023-01-13T09:17:46;9.70;;;2.20;;
11498;SDS011;5806;48.748;9.278;2023-01-13T09:20:14;12.93;;;2.30;;
11498;SDS011;5806;48.748;9.278;2023-01-13T09:22:41;14.30;;;3.30;;
11498;SDS011;5806;48.748;9.278;2023-01-13T09:25:09;9.70;;;2.30;;
11498;SDS011;5806;48.748;9.278;2023-01-13T09:27:37;12.97;;;2.33;;
11498;SDS011;5806;48.748;9.278;2023-01-13T09:30:05;9.97;;;2.37;;
11498;SDS011;5806;48.748;9.278;2023-01-13T09:32:33;11.07;;;2.37;;
11498;SDS011;5806;48.748;9.278;2023-01-13T09:35:03;8.43;;;2.00;;
11498;SDS011;5806;48.748;9.278;2023-01-13T09:37:33;8.90;;;2.27;;
11498;SDS011;5806;48.748;9.278;2023-01-13T09:40:03;10.33;;;2.03;;
11498;SDS011;5806;48.748;9.278;2023-01-13T09:45:25;10.87;;;2.47;;
11498;SDS011;5806;48.748;9.278;2023-01-13T09:50:45;12.53;;;2.43;;
11498;SDS011;5806;48.748;9.278;2023-01-13T09:53:29;9.43;;;2.03;;
11498;SDS011;5806;48.748;9.278;2023-01-13T09:55:58;10.23;;;2.57;;
11498;SDS011;5806;48.748;9.278;2023-01-13T09:58:26;10.67;;;2.30;;
11498;SDS011;5806;48.748;9.278;2023-01-13T10:03:33;10.57;;;2.50;;
11498;SDS011;5806;48.748;9.278;2023-01-13T10:06:18;8.97;;;2.53;;
11498;SDS011;5806;48.748;9.278;2023-01-13T10:09:03;9.27;;;2.30;;
11498;SDS011;5806;48.748;9.278;2023-01-13T10:11:38;12.33;;;2.70;;
11498;SDS011;5806;48.748;9.278;2023-01-13T10:14:27;11.63;;;2.40;;
11498;SDS011;5806;48.748;9.278;2023-01-13T10:19:37;14.40;;;2.13;;
11498;SDS011;5806;48.748;9.278;2023-01-13T10:25:02;9.77;;;2.00;;
11498;SDS011;5806;48.748;9.278;2023-01-13T10:27:32;9.27;;;2.10;;
11498;SDS011;5806;48.748;9.278;2023-01-13T10:30:16;9.97;;;2.10;;
11498;SDS011;5806;48.748;9.278;2023-01-13T10:32:54;17.27;;;3.47;;
11498;SDS011;5806;48.748;9.278;2023-01-13T10:38:21;13.43;;;2.57;;
11498;SDS011;5806;48.748;9.278;2023-01-13T10:41:07;13.20;;;2.23;;
11498;SDS011;5806;48.748;9.278;2023-01-13T10:43:57;14.07;;;3.27;;
11498;SDS011;5806;48.748;9.278;2023-01-13T10:46:34;9.87;;;2.30;;
11498;SDS011;5806;48.748;9.278;2023-01-13T10:49:17;16.77;;;2.73;;
11498;SDS011;5806;48.748;9.278;2023-01-13T10:51:45;11.53;;;2.57;;
11498;SDS011;5806;48.748;9.278;2023-01-13T10:54:17;11.80;;;2.40;;
11498;SDS011;5806;48.748;9.278;2023-01-13T10:56:48;11.50;;;2.83;;
11498;SDS011;5806;48.748;9.278;2023-01-13T10:59:24;8.37;;;2.17;;
11498;SDS011;5806;48.748;9.278;2023-01-13T11:01:57;11.90;;;2.80;;
11498;SDS011;5806;48.748;9.278;2023-01-13T11:04:30;15.77;;;2.57;;
11498;SDS011;5806;48.748;9.278;2023-01-13T11:07:15;11.87;;;2.57;;
11498;SDS011;5806;48.748;9.278;2023-01-13T11:09:44;12.93;;;3.00;;
11498;SDS011;5806;48.748;9.278;2023-01-13T11:12:29;13.40;;;2.80;;
11498;SDS011;5806;48.748;9.278;2023-01-13T11:15:01;12.70;;;2.37;;
11498;SDS011;5806;48.748;9.278;2023-01-13T11:17:37;12.60;;;2.63;;
11498;SDS011;5806;48.748;9.278;2023-01-13T11:20:18;13.53;;;2.33;;
11498;SDS011;5806;48.748;9.278;2023-01-13T11:22:47;11.03;;;2.87;;
11498;SDS011;5806;48.748;9.278;2023-01-13T11:25:21;11.53;;;2.80;;
11498;SDS011;5806;48.748;9.278;2023-01-13T11:28:13;15.07;;;3.03;;
11498;SDS011;5806;48.748;9.278;2023-01-13T11:30:36;14.37;;;3.57;;
11498;SDS011;5806;48.748;9.278;2023-01-13T11:35:48;16.30;;;2.63;;
11498;SDS011;5806;48.748;9.278;2023-01-13T11:38:35;13.23;;;2.97;;
11498;SDS011;5806;48.748;9.278;2023-01-13T11:44:27;12.00;;;2.63;;
11498;SDS011;5806;48.748;9.278;2023-01-13T11:46:38;16.77;;;3.60;;
11498;SDS011;5806;48.748;9.278;2023-01-13T11:49:08;14.50;;;2.70;;
11498;SDS011;5806;48.748;9.278;2023-01-13T11:51:38;11.03;;;2.60;;
11498;SDS011;5806;48.748;9.278;2023-01-13T11:59:48;11.00;;;2.33;;
11498;SDS011;5806;48.748;9.278;2023-01-13T12:02:22;9.43;;;2.23;;
11498;SDS011;5806;48.748;9.278;2023-01-13T12:07:43;9.67;;;2.17;;
11498;SDS011;5806;48.748;9.278;2023-01-13T12:15:34;10.17;;;2.27;;
11498;SDS011;5806;48.748;9.278;2023-01-13T12:18:26;10.10;;;2.03;;
11498;SDS011;5806;48.748;9.278;2023-01-13T12:21:14;12.80;;;2.53;;
11498;SDS011;5806;48.748;9.278;2023-01-13T12:23:49;8.83;;;2.30;;
11498;SDS011;5806;48.748;9.278;2023-01-13T12:26:36;11.10;;;1.83;;
11498;SDS011;5806;48.748;9.278;2023-01-13T12:29:15;9.13;;;2.47;;
11498;SDS011;5806;48.748;9.278;2023-01-13T12:31:47;6.10;;;2.63;;
11498;SDS011;5806;48.748;9.278;2023-01-13T12:34:21;10.57;;;2.23;;
11498;SDS011;5806;48.748;9.278;2023-01-13T12:37:03;6.97;;;2.20;;
11498;SDS011;5806;48.748;9.278;2023-01-13T12:45:29;9.77;;;2.10;;
11498;SDS011;5806;48.748;9.278;2023-01-13T12:47:58;11.03;;;2.30;;
11498;SDS011;5806;48.748;9.278;2023-01-13T12:52:56;6.27;;;1.40;;
11498;SDS011;5806;48.748;9.278;2023-01-13T12:55:32;12.00;;;2.27;;
11498;SDS011;5806;48.748;9.278;2023-01-13T13:06:02;9.33;;;2.07;;
11498;SDS011;5806;48.748;9.278;2023-01-13T13:08:41;9.40;;;2.27;;
11498;SDS011;5806;48.748;9.278;2023-01-13T13:14:05;10.00;;;2.67;;
11498;SDS011;5806;48.748;9.278;2023-01-13T13:16:44;8.07;;;1.97;;
11498;SDS011;5806;48.748;9.278;2023-01-13T13:24:37;11.90;;;3.00;;
11498;SDS011;5806;48.748;9.278;2023-01-13T13:29:52;8.57;;;2.60;;
11498;SDS011;5806;48.748;9.278;2023-01-13T13:38:10;8.97;;;2.23;;
11498;SDS011;5806;48.748;9.278;2023-01-13T13:41:13;8.87;;;1.90;;
11498;SDS011;5806;48.748;9.278;2023-01-13T13:43:59;6.40;;;1.40;;
11498;SDS011;5806;48.748;9.278;2023-01-13T13:46:50;10.60;;;2.10;;
11498;SDS011;5806;48.748;9.278;2023-01-13T13:49:19;9.37;;;2.03;;
11498;SDS011;5806;48.748;9.278;2023-01-13T13:51:59;11.77;;;2.00;;
11498;SDS011;5806;48.748;9.278;2023-01-13T13:54:28;7.00;;;2.23;;
11498;SDS011;5806;48.748;9.278;2023-01-13T13:56:57;10.03;;;1.70;;
11498;SDS011;5806;48.748;9.278;2023-01-13T13:59:26;6.10;;;1.80;;
11498;SDS011;5806;48.748;9.278;2023-01-13T14:01:58;9.40;;;2.03;;
11498;SDS011;5806;48.748;9.278;2023-01-13T14:04:32;6.80;;;1.73;;
11498;SDS011;5806;48.748;9.278;2023-01-13T14:07:02;7.50;;;1.67;;
11498;SDS011;5806;48.748;9.278;2023-01-13T14:09:48;9.37;;;1.97;;
11498;SDS011;5806;48.748;9.278;2023-01-13T14:12:22;8.27;;;1.93;;
11498;SDS011;5806;48.748;9.278;2023-01-13T14:14:52;8.97;;;2.03;;
11498;SDS011;5806;48.748;9.278;2023-01-13T14:17:23;6.63;;;1.90;;
11498;SDS011;5806;48.748;9.278;2023-01-13T14:20:00;7.33;;;2.37;;
11498;SDS011;5806;48.748;9.278;2023-01-13T14:22:30;8.77;;;2.50;;
11498;SDS011;5806;48.748;9.278;2023-01-13T14:24:58;8.57;;;2.40;;
11498;SDS011;5806;48.748;9.278;2023-01-13T14:27:27;7.33;;;2.53;;
11498;SDS011;5806;48.748;9.278;2023-01-13T14:29:56;10.23;;;2.57;;
11498;SDS011;5806;48.748;9.278;2023-01-13T14:32:33;7.37;;;2.20;;
11498;SDS011;5806;48.748;9.278;2023-01-13T14:35:04;12.10;;;2.07;;
11498;SDS011;5806;48.748;9.278;2023-01-13T14:37:37;9.33;;;2.53;;
11498;SDS011;5806;48.748;9.278;2023-01-13T14:40:49;10.80;;;2.33;;
11498;SDS011;5806;48.748;9.278;2023-01-13T14:43:03;10.83;;;2.00;;
11498;SDS011;5806;48.748;9.278;2023-01-13T14:45:26;10.20;;;2.80;;
11498;SDS011;5806;48.748;9.278;2023-01-13T14:47:55;11.97;;;2.40;;
11498;SDS011;5806;48.748;9.278;2023-01-13T14:50:25;9.20;;;2.40;;
11498;SDS011;5806;48.748;9.278;2023-01-13T14:52:57;10.43;;;2.33;;
11498;SDS011;5806;48.748;9.278;2023-01-13T14:55:32;12.87;;;2.63;;
11498;SDS011;5806;48.748;9.278;2023-01-13T15:00:50;9.60;;;2.47;;
11498;SDS011;5806;48.748;9.278;2023-01-13T15:03:19;8.93;;;2.37;;
11498;SDS011;5806;48.748;9.278;2023-01-13T15:05:51;9.07;;;2.03;;
11498;SDS011;5806;48.748;9.278;2023-01-13T15:08:26;12.77;;;2.70;;
11498;SDS011;5806;48.748;9.278;2023-01-13T15:11:00;11.60;;;2.07;;
11498;SDS011;5806;48.748;9.278;2023-01-13T15:13:37;9.73;;;2.40;;
11498;SDS011;5806;48.748;9.278;2023-01-13T15:16:13;11.77;;;2.30;;
11498;SDS011;5806;48.748;9.278;2023-01-13T15:18:42;18.87;;;2.70;;
11498;SDS011;5806;48.748;9.278;2023-01-13T15:21:10;14.97;;;2.43;;
11498;SDS011;5806;48.748;9.278;2023-01-13T15:23:38;11.40;;;2.63;;
11498;SDS011;5806;48.748;9.278;2023-01-13T15:26:27;11.47;;;2.73;;
11498;SDS011;5806;48.748;9.278;2023-01-13T15:29:01;15.77;;;3.37;;
11498;SDS011;5806;48.748;9.278;2023-01-13T15:31:30;9.63;;;2.63;;
11498;SDS011;5806;48.748;9.278;2023-01-13T15:33:57;12.07;;;2.87;;
11498;SDS011;5806;48.748;9.278;2023-01-13T15:36:29;15.43;;;2.90;;
11498;SDS011;5806;48.748;9.278;2023-01-13T15:38:58;13.40;;;3.40;;
11498;SDS011;5806;48.748;9.278;2023-01-13T15:41:26;10.90;;;3.67;;
11498;SDS011;5806;48.748;9.278;2023-01-13T15:44:12;18.57;;;3.37;;
11498;SDS011;5806;48.748;9.278;2023-01-13T15:47:05;11.80;;;3.00;;
11498;SDS011;5806;48.748;9.278;2023-01-13T15:49:32;17.00;;;4.93;;
11498;SDS011;5806;48.748;9.278;2023-01-13T15:52:22;12.40;;;4.10;;
11498;SDS011;5806;48.748;9.278;2023-01-13T15:54:51;12.93;;;3.40;;
11498;SDS011;5806;48.748;9.278;2023-01-13T15:57:25;15.70;;;3.67;;
11498;SDS011;5806;48.748;9.278;2023-01-13T15:59:50;12.93;;;3.33;;
11498;SDS011;5806;48.748;9.278;2023-01-13T16:02:20;10.73;;;2.73;;
11498;SDS011;5806;48.748;9.278;2023-01-13T16:04:49;14.87;;;3.47;;
11498;SDS011;5806;48.748;9.278;2023-01-13T16:07:18;12.77;;;3.37;;
11498;SDS011;5806;48.748;9.278;2023-01-13T16:09:48;9.80;;;3.03;;
11498;SDS011;5806;48.748;9.278;2023-01-13T16:12:15;10.97;;;2.67;;
11498;SDS011;5806;48.748;9.278;2023-01-13T16:14:43;13.20;;;3.73;;
11498;SDS011;5806;48.748;9.278;2023-01-13T16:17:14;8.37;;;2.57;;
11498;SDS011;5806;48.748;9.278;2023-01-13T16:19:44;15.90;;;4.27;;
11498;SDS011;5806;48.748;9.278;2023-01-13T16:22:12;15.27;;;5.03;;
11498;SDS011;5806;48.748;9.278;2023-01-13T16:24:41;10.70;;;3.17;;
11498;SDS011;5806;48.748;9.278;2023-01-13T16:27:15;10.50;;;2.80;;
11498;SDS011;5806;48.748;9.278;2023-01-13T16:29:45;13.97;;;3.73;;
11498;SDS011;5806;48.748;9.278;2023-01-13T16:32:13;16.40;;;4.10;;
11498;SDS011;5806;48.748;9.278;2023-01-13T16:34:40;17.23;;;4.97;;
11498;SDS011;5806;48.748;9.278;2023-01-13T16:37:30;15.83;;;5.50;;
11498;SDS011;5806;48.748;9.278;2023-01-13T16:39:48;12.77;;;4.33;;
11498;SDS011;5806;48.748;9.278;2023-01-13T16:42:15;11.57;;;3.77;;
11498;SDS011;5806;48.748;9.278;2023-01-13T16:44:43;13.67;;;4.37;;
11498;SDS011;5806;48.748;9.278;2023-01-13T16:47:13;12.53;;;3.93;;
11498;SDS011;5806;48.748;9.278;2023-01-13T16:49:41;14.17;;;4.40;;
11498;SDS011;5806;48.748;9.278;2023-01-13T16:52:09;17.47;;;3.83;;
11498;SDS011;5806;48.748;9.278;2023-01-13T16:54:37;20.93;;;5.53;;
11498;SDS011;5806;48.748;9.278;2023-01-13T16:57:04;14.93;;;5.40;;
11498;SDS011;5806;48.748;9.278;2023-01-13T16:59:33;18.50;;;5.70;;
11498;SDS011;5806;48.748;9.278;2023-01-13T17:02:02;14.40;;;5.20;;
11498;SDS011;5806;48.748;9.278;2023-01-13T17:04:30;12.83;;;4.03;;
11498;SDS011;5806;48.748;9.278;2023-01-13T17:06:59;12.60;;;4.10;;
11498;SDS011;5806;48.748;9.278;2023-01-13T17:09:29;17.50;;;4.47;;
11498;SDS011;5806;48.748;9.278;2023-01-13T17:11:57;16.13;;;5.03;;
11498;SDS011;5806;48.748;9.278;2023-01-13T17:14:24;17.67;;;4.00;;
11498;SDS011;5806;48.748;9.278;2023-01-13T17:16:53;15.17;;;4.30;;